Canelo Arrow — C6OM8 — position and weather

sailwx.info

Track history (hours):
 
Tides and Currents Weather Stations Pressure Air Temp Water Temp Dewpoint Dewpoint Depression Visibility Wind Speed Wind Dir Waves Ship Positions

Canelo Arrow

Last reported at 2018-Feb-22 21:37 UTC. Time now 2018-Feb-24 14:12 UTC.
Position N 37°60' E 122°05'.

Length 189.8 m; beam 31 m; draft 12.8 m.

Type: Cargo ship. MMSI: 309761000.

Date/timePositionNaut miles runAvg speedWind from/ knotsBaromVisibWave heightAir tempDewpointWater temp
2018-Feb-22 21:37N 37°60' E 122°05'413.0
2018-Feb-22 21:17N 38°02' E 122°01'413.0
2018-Feb-22 21:00N 38°04' E 121°57'  
2018-Feb-18 17:20N 38°11' E 121°39'514.3
2018-Feb-18 16:59N 38°08' E 121°44'814.2
2018-Feb-18 16:27N 38°04' E 121°52'714.0
2018-Feb-18 15:57N 37°60' E 121°59'1813.8
2018-Feb-18 14:38N 37°49' E 122°18'  
2018-Feb-13 16:00N 27°12' E 123°00'13312.1 140 / 191024.8 5.4 14.0 8.010.0
2018-Feb-13 05:02N 25°04' E 122°19'113.5
2018-Feb-13 04:58N 25°03' E 122°19'613.3
2018-Feb-13 04:30N 24°57' E 122°17'613.2
2018-Feb-13 04:00N 24°51' E 122°15'713.2
2018-Feb-13 03:30N 24°45' E 122°12'713.4
2018-Feb-13 02:59N 24°38' E 122°11'612.9
2018-Feb-13 02:30N 24°32' E 122°09'612.8
2018-Feb-13 01:59N 24°26' E 122°06'  
Track history (hours):
 
Tides and Currents Weather Stations Pressure Air Temp Water Temp Dewpoint Dewpoint Depression Visibility Wind Speed Wind Dir Waves Ship Positions

Canelo Arrow

Last reported at 2018-Feb-22 21:37 UTC. Time now 2018-Feb-24 14:12 UTC.
Position N 37°60' E 122°05'.

Length 189.8 m; beam 31 m; draft 12.8 m.

Type: Cargo ship. MMSI: 309761000.

Date/timePositionNaut miles runAvg speedWind from/ knotsBaromVisibWave heightAir tempDewpointWater temp
2018-Feb-22 21:37N 37°60' E 122°05'413.0
2018-Feb-22 21:17N 38°02' E 122°01'413.0
2018-Feb-22 21:00N 38°04' E 121°57'  
2018-Feb-18 17:20N 38°11' E 121°39'514.3
2018-Feb-18 16:59N 38°08' E 121°44'814.2
2018-Feb-18 16:27N 38°04' E 121°52'714.0
2018-Feb-18 15:57N 37°60' E 121°59'1813.8
2018-Feb-18 14:38N 37°49' E 122°18'  
2018-Feb-13 16:00N 27°12' E 123°00'13312.1 140 / 191024.8 5.4 14.0 8.010.0
2018-Feb-13 05:02N 25°04' E 122°19'113.5
2018-Feb-13 04:58N 25°03' E 122°19'613.3
2018-Feb-13 04:30N 24°57' E 122°17'613.2
2018-Feb-13 04:00N 24°51' E 122°15'713.2
2018-Feb-13 03:30N 24°45' E 122°12'713.4
2018-Feb-13 02:59N 24°38' E 122°11'612.9
2018-Feb-13 02:30N 24°32' E 122°09'612.8
2018-Feb-13 01:59N 24°26' E 122°06'  

Dump ship's entire track history